Time;durP1;ratioP1;P1;durP2;ratioP2;P2;SDS_P1;SDS_P2;PMS_P1;PMS_P2;Temp;Humidity;BMP_temperature;BMP_pressure;BME280_temperature;BME280_humidity;BME280_pressure;Samples;Min_cycle;Max_cycle;Signal;HPM_P1;HPM_P2
2022/11/11 00:01:49;;;;;;;;;;;;;;;;;;5052176;28;19956;-76
2022/11/11 00:04:15;;;;;;;;;;;;;;;;;;5053018;28;19927;-76
2022/11/11 00:06:41;;;;;;;;;;;;;;;;;;5053077;28;19916;-76
2022/11/11 00:09:07;;;;;;;;;;;;;;;;;;5051759;28;19927;-76
2022/11/11 00:11:32;;;;;;;;;;;;;;;;;;5051774;28;19916;-76
2022/11/11 00:13:58;;;;;;;;;;;;;;;;;;5051723;28;19915;-77
2022/11/11 00:16:24;;;;;;;;;;;;;;;;;;5051212;28;20364;-76
2022/11/11 00:27:00;;;;;;;;;;;;;;;;;;5052873;28;19916;-78
2022/11/11 00:29:26;;;;;;;;;;;;;;;;;;5052041;28;19913;-76
2022/11/11 00:34:37;;;;;;;;;;;;;;;;;;5052211;28;20377;-76
2022/11/11 00:37:03;;;;;;;;;;;;;;;;;;5052661;28;19963;-76
2022/11/11 00:39:28;;;;;;;;;;;;;;;;;;5051186;28;19917;-76
2022/11/11 00:41:54;;;;;;;;;;;;;;;;;;5052659;28;20381;-77
2022/11/11 00:44:20;;;;;;;;;;;;;;;;;;5051369;28;19909;-76
2022/11/11 00:52:15;;;;;;;;;;;;;;;;;;5052506;28;20336;-76
2022/11/11 00:54:41;;;;;;;;;;;;;;;;;;5051166;28;19952;-76
2022/11/11 00:57:07;;;;;;;;;;;;;;;;;;5052720;28;19909;-76
2022/11/11 00:59:33;;;;;;;;;;;;;;;;;;5052295;28;20579;-77
2022/11/11 01:01:59;;;;;;;;;;;;;;;;;;5052737;28;19948;-76
2022/11/11 01:04:25;;;;;;;;;;;;;;;;;;5051191;28;20265;-76
2022/11/11 01:06:51;;;;;;;;;;;;;;;;;;5052342;28;19952;-76
2022/11/11 01:09:17;;;;;;;;;;;;;;;;;;5052433;28;20254;-76
2022/11/11 01:11:43;;;;;;;;;;;;;;;;;;5052512;28;19923;-77
2022/11/11 01:14:09;;;;;;;;;;;;;;;;;;5051236;28;20319;-76
2022/11/11 01:16:34;;;;;;;;;;;;;;;;;;5051838;28;19948;-77
2022/11/11 01:19:00;;;;;;;;;;;;;;;;;;5050900;28;20380;-76
2022/11/11 01:21:26;;;;;;;;;;;;;;;;;;5052235;28;20344;-76
2022/11/11 01:23:52;;;;;;;;;;;;;;;;;;5051152;28;19923;-77
2022/11/11 01:26:18;;;;;;;;;;;;;;;;;;5051005;28;19931;-76
2022/11/11 01:28:44;;;;;;;;;;;;;;;;;;5050722;28;20107;-76
2022/11/11 01:31:10;;;;;;;;;;;;;;;;;;5051122;28;19909;-76
2022/11/11 01:33:36;;;;;;;;;;;;;;;;;;5050964;28;20404;-77
2022/11/11 01:36:02;;;;;;;;;;;;;;;;;;5052022;28;19909;-76
2022/11/11 01:38:28;;;;;;;;;;;;;;;;;;5050674;28;19999;-76
2022/11/11 01:40:54;;;;;;;;;;;;;;;;;;5050868;28;19909;-76
2022/11/11 01:43:20;;;;;;;;;;;;;;;;;;5052672;28;19919;-76
2022/11/11 01:45:46;;;;;;;;;;;;;;;;;;5054434;28;20288;-76
2022/11/11 01:50:57;;;;;;;;;;;;;;;;;;5055490;28;19916;-76
2022/11/11 01:53:22;;;;;;;;;;;;;;;;;;5054288;28;20293;-76
2022/11/11 01:55:48;;;;;;;;;;;;;;;;;;5054216;28;20146;-78
2022/11/11 01:58:14;;;;;;;;;;;;;;;;;;5054950;28;19913;-76
2022/11/11 02:00:40;;;;;;;;;;;;;;;;;;5054341;28;20357;-76
2022/11/11 02:03:06;;;;;;;;;;;;;;;;;;5054086;28;19988;-76
2022/11/11 02:05:42;;;;;;;;;;;;;;;;;;5053995;28;20368;-77
2022/11/11 02:08:08;;;;;;;;;;;;;;;;;;5054047;28;19916;-76
2022/11/11 02:10:34;;;;;;;;;;;;;;;;;;5055153;28;20003;-76
2022/11/11 02:15:44;;;;;;;;;;;;;;;;;;5055115;28;19915;-76
2022/11/11 02:18:10;;;;;;;;;;;;;;;;;;5053638;28;19912;-76
2022/11/11 02:20:36;;;;;;;;;;;;;;;;;;5053834;28;20357;-76
2022/11/11 02:23:02;;;;;;;;;;;;;;;;;;5055070;28;19905;-76
2022/11/11 02:25:28;;;;;;;;;;;;;;;;;;5053770;28;20004;-77
2022/11/11 02:27:54;;;;;;;;;;;;;;;;;;5053658;28;20284;-77
2022/11/11 02:30:20;;;;;;;;;;;;;;;;;;5054668;28;20292;-77
2022/11/11 02:32:46;;;;;;;;;;;;;;;;;;5053754;28;20329;-77
2022/11/11 02:35:12;;;;;;;;;;;;;;;;;;5053401;28;19916;-76
2022/11/11 02:37:37;;;;;;;;;;;;;;;;;;5053408;28;19904;-78
2022/11/11 02:40:06;;;;;;;;;;;;;;;;;;5052964;28;19909;-77
2022/11/11 02:42:31;;;;;;;;;;;;;;;;;;5053548;28;20003;-76
2022/11/11 02:44:58;;;;;;;;;;;;;;;;;;5053311;28;20002;-76
2022/11/11 02:47:24;;;;;;;;;;;;;;;;;;5054308;28;19923;-77
2022/11/11 02:49:50;;;;;;;;;;;;;;;;;;5054483;28;19913;-76
2022/11/11 02:52:16;;;;;;;;;;;;;;;;;;5053191;28;19909;-76
2022/11/11 02:54:42;;;;;;;;;;;;;;;;;;5053326;28;19916;-76
2022/11/11 02:57:08;;;;;;;;;;;;;;;;;;5054315;28;19991;-76
2022/11/11 02:59:34;;;;;;;;;;;;;;;;;;5052947;28;19960;-76
2022/11/11 03:02:00;;;;;;;;;;;;;;;;;;5053104;28;19909;-76
2022/11/11 03:04:26;;;;;;;;;;;;;;;;;;5054131;28;19963;-76
2022/11/11 03:06:52;;;;;;;;;;;;;;;;;;5054101;28;20380;-76
2022/11/11 03:09:17;;;;;;;;;;;;;;;;;;5054100;28;19913;-77
2022/11/11 03:11:43;;;;;;;;;;;;;;;;;;5052915;28;20430;-77
2022/11/11 03:14:09;;;;;;;;;;;;;;;;;;5052625;28;19913;-78
2022/11/11 03:19:19;;;;;;;;;;;;;;;;;;5053451;28;19923;-76
2022/11/11 03:21:45;;;;;;;;;;;;;;;;;;5052774;28;19908;-76
2022/11/11 03:24:11;;;;;;;;;;;;;;;;;;5053810;28;19909;-76
2022/11/11 03:26:37;;;;;;;;;;;;;;;;;;5053730;28;20046;-76
2022/11/11 03:29:03;;;;;;;;;;;;;;;;;;5053282;28;19916;-77
2022/11/11 03:31:29;;;;;;;;;;;;;;;;;;5052619;28;19913;-76
2022/11/11 03:33:55;;;;;;;;;;;;;;;;;;5053685;28;20366;-77
2022/11/11 03:38:14;;;;;;;;;;;;;;;;;;5052293;28;19940;-76
2022/11/11 03:39:06;;;;;;;;;;;;;;;;;;5053298;28;19944;-77
2022/11/11 03:41:33;;;;;;;;;;;;;;;;;;5052502;28;19939;-76
2022/11/11 03:43:59;;;;;;;;;;;;;;;;;;5046039;28;19918;-77
2022/11/11 03:46:25;;;;;;;;;;;;;;;;;;5031990;28;19909;-77
2022/11/11 03:48:50;;;;;;;;;;;;;;;;;;5032060;28;19939;-76
2022/11/11 03:51:16;;;;;;;;;;;;;;;;;;5032280;28;19963;-77
2022/11/11 03:53:42;;;;;;;;;;;;;;;;;;5032296;28;19913;-76
2022/11/11 03:56:08;;;;;;;;;;;;;;;;;;5034608;28;19955;-76
2022/11/11 03:58:34;;;;;;;;;;;;;;;;;;5052867;28;20399;-78
2022/11/11 04:10:21;;;;;;;;;;;;;;;;;;5051702;28;19916;-76
2022/11/11 04:12:00;;;;;;;;;;;;;;;;;;5053079;28;19927;-76
2022/11/11 04:17:10;;;;;;;;;;;;;;;;;;5052828;28;19916;-77
2022/11/11 04:22:21;;;;;;;;;;;;;;;;;;5052911;28;19915;-77
2022/11/11 04:27:31;;;;;;;;;;;;;;;;;;5052858;28;19915;-77
2022/11/11 04:29:57;;;;;;;;;;;;;;;;;;5051124;28;20003;-78
2022/11/11 04:32:37;;;;;;;;;;;;;;;;;;5051221;28;20388;-76
2022/11/11 04:35:03;;;;;;;;;;;;;;;;;;5051105;28;19944;-76
2022/11/11 04:37:29;;;;;;;;;;;;;;;;;;5052672;28;19919;-76
2022/11/11 04:42:40;;;;;;;;;;;;;;;;;;5052932;28;19967;-77
2022/11/11 04:47:50;;;;;;;;;;;;;;;;;;5052535;28;19931;-76
2022/11/11 04:50:16;;;;;;;;;;;;;;;;;;5052772;28;19999;-77
2022/11/11 04:52:42;;;;;;;;;;;;;;;;;;5052767;28;19913;-76
2022/11/11 04:57:52;;;;;;;;;;;;;;;;;;5052312;28;20432;-76
2022/11/11 05:00:18;;;;;;;;;;;;;;;;;;5052765;28;19999;-76
2022/11/11 05:08:54;;;;;;;;;;;;;;;;;;5052708;28;19916;-76
2022/11/11 05:10:59;;;;;;;;;;;;;;;;;;5052535;28;19963;-76
2022/11/11 05:21:39;;;;;;;;;;;;;;;;;;5056327;28;20339;-76
2022/11/11 05:26:49;;;;;;;;;;;;;;;;;;5056121;28;19962;-77
2022/11/11 05:29:15;;;;;;;;;;;;;;;;;;5055459;28;20000;-76
2022/11/11 05:31:40;;;;;;;;;;;;;;;;;;5056215;28;19915;-76
2022/11/11 05:34:06;;;;;;;;;;;;;;;;;;5054649;28;19909;-76
2022/11/11 05:36:32;;;;;;;;;;;;;;;;;;5055699;28;20369;-76
2022/11/11 05:38:58;;;;;;;;;;;;;;;;;;5054691;28;20292;-76
2022/11/11 05:41:24;;;;;;;;;;;;;;;;;;5055856;28;20007;-76
2022/11/11 05:43:50;;;;;;;;;;;;;;;;;;5055831;28;19909;-77
2022/11/11 05:46:16;;;;;;;;;;;;;;;;;;5054120;28;19935;-76
2022/11/11 05:49:13;;;;;;;;;;;;;;;;;;5056253;28;19924;-77
2022/11/11 05:51:28;;;;;;;;;;;;;;;;;;5055677;28;19908;-76
2022/11/11 05:53:53;;;;;;;;;;;;;;;;;;5054563;28;19959;-76
2022/11/11 05:56:19;;;;;;;;;;;;;;;;;;5051438;28;19928;-77
2022/11/11 05:58:45;;;;;;;;;;;;;;;;;;5055061;28;19958;-77
2022/11/11 06:01:11;;;;;;;;;;;;;;;;;;5055171;28;19916;-76
2022/11/11 06:03:37;;;;;;;;;;;;;;;;;;5054477;28;19960;-76
2022/11/11 06:06:03;;;;;;;;;;;;;;;;;;5053920;28;19909;-76
2022/11/11 06:08:29;;;;;;;;;;;;;;;;;;5055591;28;19950;-76
2022/11/11 06:10:55;;;;;;;;;;;;;;;;;;5054441;28;19955;-77
2022/11/11 06:13:21;;;;;;;;;;;;;;;;;;5055687;28;20389;-76
2022/11/11 06:15:46;;;;;;;;;;;;;;;;;;5053882;28;19905;-77
2022/11/11 06:18:12;;;;;;;;;;;;;;;;;;5054276;28;19913;-77
2022/11/11 06:20:38;;;;;;;;;;;;;;;;;;5055355;28;19948;-76
2022/11/11 06:23:04;;;;;;;;;;;;;;;;;;5055645;28;19915;-76
2022/11/11 06:28:15;;;;;;;;;;;;;;;;;;5054582;28;20284;-77
2022/11/11 06:30:41;;;;;;;;;;;;;;;;;;5055507;28;19909;-77
2022/11/11 06:33:07;;;;;;;;;;;;;;;;;;5053510;28;19912;-77
2022/11/11 06:35:33;;;;;;;;;;;;;;;;;;5053837;28;19913;-76
2022/11/11 06:37:59;;;;;;;;;;;;;;;;;;5055173;28;19939;-78
2022/11/11 06:40:25;;;;;;;;;;;;;;;;;;5056391;28;19909;-77
2022/11/11 06:42:51;;;;;;;;;;;;;;;;;;5054934;28;19916;-76
2022/11/11 06:45:16;;;;;;;;;;;;;;;;;;5053507;28;19916;-77
2022/11/11 06:47:42;;;;;;;;;;;;;;;;;;5053257;28;19916;-77
2022/11/11 06:50:08;;;;;;;;;;;;;;;;;;5054220;28;19930;-76
2022/11/11 06:52:34;;;;;;;;;;;;;;;;;;5053610;28;19958;-77
2022/11/11 06:55:00;;;;;;;;;;;;;;;;;;5055016;28;19952;-77
2022/11/11 06:57:26;;;;;;;;;;;;;;;;;;5053939;28;20292;-77
2022/11/11 06:59:52;;;;;;;;;;;;;;;;;;5055205;28;20012;-77
2022/11/11 07:02:18;;;;;;;;;;;;;;;;;;5054394;28;20347;-77
2022/11/11 07:04:44;;;;;;;;;;;;;;;;;;5053670;28;19916;-77
2022/11/11 07:07:09;;;;;;;;;;;;;;;;;;5053763;28;19913;-78
2022/11/11 07:09:35;;;;;;;;;;;;;;;;;;5054067;28;20285;-77
2022/11/11 07:12:01;;;;;;;;;;;;;;;;;;5053937;28;19909;-78
2022/11/11 07:14:27;;;;;;;;;;;;;;;;;;5053410;28;19916;-76
2022/11/11 07:16:53;;;;;;;;;;;;;;;;;;5054827;28;19974;-76
2022/11/11 07:19:19;;;;;;;;;;;;;;;;;;5053720;28;19919;-77
2022/11/11 07:21:45;;;;;;;;;;;;;;;;;;5054407;28;19915;-76
2022/11/11 07:24:11;;;;;;;;;;;;;;;;;;5054250;28;19909;-77
2022/11/11 07:26:36;;;;;;;;;;;;;;;;;;5054018;28;19952;-78
2022/11/11 07:29:02;;;;;;;;;;;;;;;;;;5053614;28;19948;-77
2022/11/11 07:31:29;;;;;;;;;;;;;;;;;;5053647;28;19908;-77
2022/11/11 07:33:54;;;;;;;;;;;;;;;;;;5053786;28;19905;-76
2022/11/11 07:36:20;;;;;;;;;;;;;;;;;;5054342;28;19909;-76
2022/11/11 07:38:46;;;;;;;;;;;;;;;;;;5054149;28;19920;-76
2022/11/11 07:41:12;;;;;;;;;;;;;;;;;;5054609;28;19913;-76
2022/11/11 07:43:38;;;;;;;;;;;;;;;;;;5054523;28;19909;-76
2022/11/11 07:46:04;;;;;;;;;;;;;;;;;;5053244;28;19951;-77
2022/11/11 07:48:30;;;;;;;;;;;;;;;;;;5052851;28;20308;-78
2022/11/11 07:50:56;;;;;;;;;;;;;;;;;;5053895;28;19983;-76
2022/11/11 07:53:22;;;;;;;;;;;;;;;;;;5053187;28;19909;-75
2022/11/11 07:55:47;;;;;;;;;;;;;;;;;;5053009;28;19995;-75
2022/11/11 07:58:13;;;;;;;;;;;;;;;;;;5053018;28;19913;-75
2022/11/11 08:00:39;;;;;;;;;;;;;;;;;;5056344;28;19962;-76
2022/11/11 08:03:06;;;;;;;;;;;;;;;;;;5056122;28;19992;-76
2022/11/11 08:05:32;;;;;;;;;;;;;;;;;;5056214;28;19913;-75
2022/11/11 08:07:58;;;;;;;;;;;;;;;;;;5055497;28;19975;-76
2022/11/11 08:10:23;;;;;;;;;;;;;;;;;;5057018;28;19943;-75
2022/11/11 08:15:35;;;;;;;;;;;;;;;;;;5057952;28;20285;-76
2022/11/11 08:18:01;;;;;;;;;;;;;;;;;;5056894;28;19959;-76
2022/11/11 08:20:27;;;;;;;;;;;;;;;;;;5055770;28;19913;-75
2022/11/11 08:22:54;;;;;;;;;;;;;;;;;;5055851;28;20356;-76
2022/11/11 08:25:20;;;;;;;;;;;;;;;;;;5055300;28;19913;-76
2022/11/11 08:27:46;;;;;;;;;;;;;;;;;;5054938;28;19932;-77
2022/11/11 08:30:11;;;;;;;;;;;;;;;;;;5056384;28;19924;-76
2022/11/11 08:32:37;;;;;;;;;;;;;;;;;;5057078;28;19915;-76
2022/11/11 08:35:03;;;;;;;;;;;;;;;;;;5057379;28;19916;-76
2022/11/11 08:37:29;;;;;;;;;;;;;;;;;;5055919;28;20292;-76
2022/11/11 08:39:56;;;;;;;;;;;;;;;;;;5055113;28;19912;-76
2022/11/11 08:42:22;;;;;;;;;;;;;;;;;;5055949;28;19909;-76
2022/11/11 08:44:48;;;;;;;;;;;;;;;;;;5055032;28;19904;-76
2022/11/11 08:47:14;;;;;;;;;;;;;;;;;;5055404;28;19917;-76
2022/11/11 08:49:39;;;;;;;;;;;;;;;;;;5053827;28;19932;-75
2022/11/11 08:52:05;;;;;;;;;;;;;;;;;;5059169;28;19909;-76
2022/11/11 08:54:31;;;;;;;;;;;;;;;;;;5059017;28;19905;-77
2022/11/11 08:56:57;;;;;;;;;;;;;;;;;;5057188;28;19995;-77
2022/11/11 08:59:23;;;;;;;;;;;;;;;;;;5057152;28;19946;-77
2022/11/11 09:01:49;;;;;;;;;;;;;;;;;;5056772;28;20288;-77
2022/11/11 09:04:16;;;;;;;;;;;;;;;;;;5058560;28;19916;-77
2022/11/11 09:06:44;;;;;;;;;;;;;;;;;;5056494;28;19908;-77
2022/11/11 09:09:10;;;;;;;;;;;;;;;;;;5057506;28;20288;-77
2022/11/11 09:11:36;;;;;;;;;;;;;;;;;;5057127;28;19909;-77
2022/11/11 09:14:02;;;;;;;;;;;;;;;;;;5056409;28;19909;-77
2022/11/11 09:16:28;;;;;;;;;;;;;;;;;;5058914;28;20377;-77
2022/11/11 09:18:54;;;;;;;;;;;;;;;;;;5057620;28;19912;-77
2022/11/11 09:21:19;;;;;;;;;;;;;;;;;;5058693;28;19999;-78
2022/11/11 09:23:45;;;;;;;;;;;;;;;;;;5058164;28;19909;-76
2022/11/11 09:26:11;;;;;;;;;;;;;;;;;;5057860;28;19909;-77
2022/11/11 09:28:37;;;;;;;;;;;;;;;;;;5056877;28;19916;-77
2022/11/11 09:31:03;;;;;;;;;;;;;;;;;;5057256;28;20349;-77
2022/11/11 09:33:30;;;;;;;;;;;;;;;;;;5058618;28;20381;-77
2022/11/11 09:35:56;;;;;;;;;;;;;;;;;;5056534;28;19909;-77
2022/11/11 09:38:22;;;;;;;;;;;;;;;;;;5057897;28;19920;-78
2022/11/11 09:40:48;;;;;;;;;;;;;;;;;;5058041;28;19909;-77
2022/11/11 09:43:14;;;;;;;;;;;;;;;;;;5056353;28;19959;-77
2022/11/11 09:45:40;;;;;;;;;;;;;;;;;;5056470;28;19913;-76
2022/11/11 09:48:06;;;;;;;;;;;;;;;;;;5057836;28;19955;-78
2022/11/11 09:50:32;;;;;;;;;;;;;;;;;;5058137;28;19940;-77
2022/11/11 09:52:58;;;;;;;;;;;;;;;;;;5058646;28;19916;-77
2022/11/11 09:55:24;;;;;;;;;;;;;;;;;;5057624;28;19954;-77
2022/11/11 09:57:49;;;;;;;;;;;;;;;;;;5055603;28;19913;-76
2022/11/11 10:00:15;;;;;;;;;;;;;;;;;;5055203;28;19999;-77
2022/11/11 10:02:41;;;;;;;;;;;;;;;;;;5054745;28;19909;-78
2022/11/11 10:05:07;;;;;;;;;;;;;;;;;;5053701;28;19932;-76
2022/11/11 10:07:33;;;;;;;;;;;;;;;;;;5054014;28;20021;-76
2022/11/11 10:09:59;;;;;;;;;;;;;;;;;;5054252;28;19909;-77
2022/11/11 10:12:26;;;;;;;;;;;;;;;;;;5054447;28;20396;-76
2022/11/11 10:14:53;;;;;;;;;;;;;;;;;;5054604;28;19909;-77
2022/11/11 10:17:18;;;;;;;;;;;;;;;;;;5054754;28;20361;-77
2022/11/11 10:19:44;;;;;;;;;;;;;;;;;;5053065;28;19919;-77
2022/11/11 10:22:10;;;;;;;;;;;;;;;;;;5053811;28;19915;-78
2022/11/11 10:24:36;;;;;;;;;;;;;;;;;;5053442;28;19935;-77
2022/11/11 10:27:02;;;;;;;;;;;;;;;;;;5053327;28;19909;-77
2022/11/11 10:29:28;;;;;;;;;;;;;;;;;;5053358;28;19995;-77
2022/11/11 10:31:54;;;;;;;;;;;;;;;;;;5053652;28;19951;-77
2022/11/11 10:34:20;;;;;;;;;;;;;;;;;;5053636;28;20330;-77
2022/11/11 10:36:46;;;;;;;;;;;;;;;;;;5054233;28;19920;-77
2022/11/11 10:39:12;;;;;;;;;;;;;;;;;;5053083;28;19913;-77
2022/11/11 10:41:38;;;;;;;;;;;;;;;;;;5054483;28;19908;-77
2022/11/11 10:44:04;;;;;;;;;;;;;;;;;;5054607;28;19916;-77
2022/11/11 10:46:30;;;;;;;;;;;;;;;;;;5052915;28;19913;-77
2022/11/11 10:48:56;;;;;;;;;;;;;;;;;;5054382;28;20008;-79
2022/11/11 10:51:22;;;;;;;;;;;;;;;;;;5053164;28;19916;-77
2022/11/11 10:53:47;;;;;;;;;;;;;;;;;;5054443;28;19916;-76
2022/11/11 10:56:13;;;;;;;;;;;;;;;;;;5055955;28;19909;-76
2022/11/11 10:58:39;;;;;;;;;;;;;;;;;;5056642;28;19917;-77
2022/11/11 11:01:05;;;;;;;;;;;;;;;;;;5056530;28;19909;-77
2022/11/11 11:03:31;;;;;;;;;;;;;;;;;;5056034;28;19908;-76
2022/11/11 11:05:57;;;;;;;;;;;;;;;;;;5054605;28;19956;-76
2022/11/11 11:08:23;;;;;;;;;;;;;;;;;;5054914;28;19962;-77
2022/11/11 11:10:49;;;;;;;;;;;;;;;;;;5056395;28;19916;-76
2022/11/11 11:13:14;;;;;;;;;;;;;;;;;;5054865;28;19928;-76
2022/11/11 11:15:40;;;;;;;;;;;;;;;;;;5054488;28;19994;-76
2022/11/11 11:18:06;;;;;;;;;;;;;;;;;;5054349;28;19915;-77
2022/11/11 11:20:32;;;;;;;;;;;;;;;;;;5054347;28;19919;-76
2022/11/11 11:23:00;;;;;;;;;;;;;;;;;;5054543;28;19971;-77
2022/11/11 11:25:28;;;;;;;;;;;;;;;;;;5054828;28;19963;-77
2022/11/11 11:27:54;;;;;;;;;;;;;;;;;;5054622;28;19915;-75
2022/11/11 11:30:20;;;;;;;;;;;;;;;;;;5053866;28;20288;-77
2022/11/11 11:32:46;;;;;;;;;;;;;;;;;;5054303;28;19908;-77
2022/11/11 11:35:13;;;;;;;;;;;;;;;;;;5054108;28;19951;-76
2022/11/11 11:37:38;;;;;;;;;;;;;;;;;;5055092;28;19916;-77
2022/11/11 11:40:04;;;;;;;;;;;;;;;;;;5053930;28;19912;-76
2022/11/11 11:42:30;;;;;;;;;;;;;;;;;;5053623;28;20361;-76
2022/11/11 11:44:56;;;;;;;;;;;;;;;;;;5053813;28;19948;-76
2022/11/11 11:47:22;;;;;;;;;;;;;;;;;;5054411;28;20003;-76
2022/11/11 11:49:48;;;;;;;;;;;;;;;;;;5054665;28;19909;-77
2022/11/11 11:52:14;;;;;;;;;;;;;;;;;;5054518;28;20003;-77
2022/11/11 11:54:40;;;;;;;;;;;;;;;;;;5052262;28;19916;-77
2022/11/11 11:57:06;;;;;;;;;;;;;;;;;;5054108;28;19954;-76
2022/11/11 11:59:32;;;;;;;;;;;;;;;;;;5052863;28;20277;-77
2022/11/11 12:01:58;;;;;;;;;;;;;;;;;;5055082;28;19917;-76
2022/11/11 12:04:24;;;;;;;;;;;;;;;;;;5053496;28;20333;-77
2022/11/11 12:06:50;;;;;;;;;;;;;;;;;;5054873;28;20265;-76
2022/11/11 12:09:15;;;;;;;;;;;;;;;;;;5054768;28;19976;-77
2022/11/11 12:11:41;;;;;;;;;;;;;;;;;;5055935;28;20279;-77
2022/11/11 12:14:07;;;;;;;;;;;;;;;;;;5055465;28;19916;-76
2022/11/11 12:16:33;;;;;;;;;;;;;;;;;;5054834;28;20277;-76
2022/11/11 12:18:59;;;;;;;;;;;;;;;;;;5053511;28;19960;-76
2022/11/11 12:21:25;;;;;;;;;;;;;;;;;;5054166;28;19923;-76
2022/11/11 12:23:51;;;;;;;;;;;;;;;;;;5053630;28;19908;-76
2022/11/11 12:26:17;;;;;;;;;;;;;;;;;;5054071;28;19927;-76
2022/11/11 12:28:43;;;;;;;;;;;;;;;;;;5055042;28;19908;-78
2022/11/11 12:31:08;;;;;;;;;;;;;;;;;;5055155;28;19909;-76
2022/11/11 12:33:34;;;;;;;;;;;;;;;;;;5053765;28;19909;-76
2022/11/11 12:36:00;;;;;;;;;;;;;;;;;;5054981;28;19909;-76
2022/11/11 12:38:26;;;;;;;;;;;;;;;;;;5054366;28;19928;-77
2022/11/11 12:40:52;;;;;;;;;;;;;;;;;;5053445;28;20007;-77
2022/11/11 12:43:18;;;;;;;;;;;;;;;;;;5053624;28;19962;-77
2022/11/11 12:45:44;;;;;;;;;;;;;;;;;;5052269;28;20015;-77
2022/11/11 12:48:10;;;;;;;;;;;;;;;;;;5053818;28;19928;-77
2022/11/11 12:50:36;;;;;;;;;;;;;;;;;;5052331;28;19938;-75
2022/11/11 12:53:02;;;;;;;;;;;;;;;;;;5052760;28;19909;-75
2022/11/11 12:55:27;;;;;;;;;;;;;;;;;;5053036;28;19909;-75
2022/11/11 12:57:53;;;;;;;;;;;;;;;;;;5054121;28;19961;-75
2022/11/11 13:00:19;;;;;;;;;;;;;;;;;;5052282;28;19913;-75
2022/11/11 13:02:45;;;;;;;;;;;;;;;;;;5051990;28;19913;-76
2022/11/11 13:05:11;;;;;;;;;;;;;;;;;;5051883;28;20003;-76
2022/11/11 13:07:37;;;;;;;;;;;;;;;;;;5050707;28;20409;-76
2022/11/11 13:10:03;;;;;;;;;;;;;;;;;;5050809;28;19963;-77
2022/11/11 13:12:29;;;;;;;;;;;;;;;;;;5052109;28;20003;-76
2022/11/11 13:14:55;;;;;;;;;;;;;;;;;;5050553;28;19960;-75
2022/11/11 13:17:21;;;;;;;;;;;;;;;;;;5051776;28;19919;-75
2022/11/11 13:19:47;;;;;;;;;;;;;;;;;;5051882;28;19920;-76
2022/11/11 13:22:13;;;;;;;;;;;;;;;;;;5052092;28;19909;-74
2022/11/11 13:24:39;;;;;;;;;;;;;;;;;;5051892;28;19962;-76
2022/11/11 13:27:05;;;;;;;;;;;;;;;;;;5050936;28;19943;-74
2022/11/11 13:29:30;;;;;;;;;;;;;;;;;;5051957;28;19916;-75
2022/11/11 13:31:56;;;;;;;;;;;;;;;;;;5049427;28;19920;-74
2022/11/11 13:34:22;;;;;;;;;;;;;;;;;;5045211;28;19921;-74
2022/11/11 13:36:48;;;;;;;;;;;;;;;;;;5048597;28;19922;-74
2022/11/11 13:39:14;;;;;;;;;;;;;;;;;;5053386;28;19924;-74
2022/11/11 13:41:40;;;;;;;;;;;;;;;;;;5046497;28;19913;-77
2022/11/11 13:44:06;;;;;;;;;;;;;;;;;;5053083;28;20329;-77
2022/11/11 13:46:32;;;;;;;;;;;;;;;;;;5053783;28;19915;-76
2022/11/11 13:48:57;;;;;;;;;;;;;;;;;;5051389;28;19917;-76
2022/11/11 13:51:23;;;;;;;;;;;;;;;;;;5053571;28;20262;-77
2022/11/11 13:53:49;;;;;;;;;;;;;;;;;;5054554;28;19920;-77
2022/11/11 13:56:15;;;;;;;;;;;;;;;;;;5051526;28;19913;-78
2022/11/11 13:58:41;;;;;;;;;;;;;;;;;;5046051;28;20003;-78
2022/11/11 14:01:07;;;;;;;;;;;;;;;;;;5045042;28;19919;-77
2022/11/11 14:03:33;;;;;;;;;;;;;;;;;;5055325;28;20015;-78
2022/11/11 14:05:59;;;;;;;;;;;;;;;;;;5053619;28;19912;-79
2022/11/11 14:08:25;;;;;;;;;;;;;;;;;;5061162;28;19921;-80
2022/11/11 14:10:51;;;;;;;;;;;;;;;;;;5060359;28;19914;-79
2022/11/11 14:13:17;;;;;;;;;;;;;;;;;;5058050;28;19909;-79
2022/11/11 14:15:42;;;;;;;;;;;;;;;;;;5075889;28;19909;-80
2022/11/11 14:18:08;;;;;;;;;;;;;;;;;;5070400;28;19976;-79
2022/11/11 14:20:35;;;;;;;;;;;;;;;;;;5068400;28;19959;-80
2022/11/11 14:23:01;;;;;;;;;;;;;;;;;;5049037;28;19909;-78
2022/11/11 14:25:27;;;;;;;;;;;;;;;;;;5047271;28;20479;-79
2022/11/11 14:27:53;;;;;;;;;;;;;;;;;;5054179;28;20373;-77
2022/11/11 14:30:19;;;;;;;;;;;;;;;;;;5054772;28;19909;-76
2022/11/11 14:32:45;;;;;;;;;;;;;;;;;;5052877;28;19920;-77
2022/11/11 14:35:11;;;;;;;;;;;;;;;;;;5052513;28;19952;-77
2022/11/11 14:37:37;;;;;;;;;;;;;;;;;;5054554;28;19909;-77
2022/11/11 14:40:02;;;;;;;;;;;;;;;;;;5052900;28;20396;-77
2022/11/11 14:42:28;;;;;;;;;;;;;;;;;;5052668;28;19966;-77
2022/11/11 14:44:54;;;;;;;;;;;;;;;;;;5054737;28;20381;-79
2022/11/11 14:47:20;;;;;;;;;;;;;;;;;;5053805;28;20007;-77
2022/11/11 14:49:46;;;;;;;;;;;;;;;;;;5053881;28;20431;-77
2022/11/11 14:52:12;;;;;;;;;;;;;;;;;;5050927;28;19920;-77
2022/11/11 14:54:38;;;;;;;;;;;;;;;;;;5054334;28;20377;-79
2022/11/11 14:57:04;;;;;;;;;;;;;;;;;;5052784;28;20011;-77
2022/11/11 14:59:29;;;;;;;;;;;;;;;;;;5052818;28;20519;-77
2022/11/11 15:01:55;;;;;;;;;;;;;;;;;;5052031;28;20373;-77
2022/11/11 15:04:21;;;;;;;;;;;;;;;;;;5052815;28;19909;-77
2022/11/11 15:06:47;;;;;;;;;;;;;;;;;;5049913;28;20408;-78
2022/11/11 15:09:13;;;;;;;;;;;;;;;;;;5052688;28;19963;-77
2022/11/11 15:11:39;;;;;;;;;;;;;;;;;;5054288;28;20347;-77
2022/11/11 15:14:05;;;;;;;;;;;;;;;;;;5051170;28;19913;-77
2022/11/11 15:16:31;;;;;;;;;;;;;;;;;;5053870;28;19912;-78
2022/11/11 15:18:56;;;;;;;;;;;;;;;;;;5053223;28;20003;-77
2022/11/11 15:21:22;;;;;;;;;;;;;;;;;;5054353;28;19915;-79
2022/11/11 15:36:49;;;;;;;;;;;;;;;;;;5385251;22;19956;-81
2022/11/11 15:39:15;;;;;;;;;;;;;;;;;;5081887;28;19920;-81
2022/11/11 15:41:41;;;;;;;;;;;;;;;;;;5079584;28;20325;-81
2022/11/11 15:44:07;;;;;;;;;;;;;;;;;;5069641;28;19920;-82
2022/11/11 15:46:33;;;;;;;;;;;;;;;;;;5083544;28;19927;-81
2022/11/11 15:48:59;;;;;;;;;;;;;;;;;;5078834;28;20398;-81
2022/11/11 15:51:24;;;;;;;;;;;;;;;;;;5077030;28;19908;-82
2022/11/11 15:53:50;;;;;;;;;;;;;;;;;;5076490;28;19919;-81
2022/11/11 15:56:16;;;;;;;;;;;;;;;;;;5070418;28;20365;-81
2022/11/11 15:58:42;;;;;;;;;;;;;;;;;;5066949;28;19971;-81
2022/11/11 16:01:08;;;;;;;;;;;;;;;;;;5076649;28;19916;-81
2022/11/11 16:03:35;;;;;;;;;;;;;;;;;;5065683;28;19913;-81
2022/11/11 16:06:01;;;;;;;;;;;;;;;;;;5062420;28;19909;-81
2022/11/11 16:08:27;;;;;;;;;;;;;;;;;;5074589;28;19919;-81
2022/11/11 16:10:53;;;;;;;;;;;;;;;;;;5063969;28;20274;-81
2022/11/11 16:13:19;;;;;;;;;;;;;;;;;;5057054;28;19927;-82
2022/11/11 16:15:45;;;;;;;;;;;;;;;;;;5066724;28;19912;-81
2022/11/11 16:18:11;;;;;;;;;;;;;;;;;;5075240;28;19911;-81
2022/11/11 16:20:38;;;;;;;;;;;;;;;;;;5074281;28;20201;-82
2022/11/11 16:23:04;;;;;;;;;;;;;;;;;;5083569;22;19929;-78
2022/11/11 16:25:30;;;;;;;;;;;;;;;;;;5070403;28;19913;-77
2022/11/11 16:27:56;;;;;;;;;;;;;;;;;;5070355;28;21855;-77
2022/11/11 16:30:22;;;;;;;;;;;;;;;;;;5073212;28;20491;-77
2022/11/11 16:32:48;;;;;;;;;;;;;;;;;;5066832;28;19960;-77
2022/11/11 16:35:14;;;;;;;;;;;;;;;;;;5053006;28;19913;-78
2022/11/11 16:37:40;;;;;;;;;;;;;;;;;;5052167;28;19909;-77
2022/11/11 16:40:05;;;;;;;;;;;;;;;;;;5052809;28;19913;-78
2022/11/11 16:42:31;;;;;;;;;;;;;;;;;;5051692;28;20539;-77
2022/11/11 16:44:57;;;;;;;;;;;;;;;;;;5051557;28;20274;-77
2022/11/11 16:47:24;;;;;;;;;;;;;;;;;;5051348;28;19908;-77
2022/11/11 16:49:50;;;;;;;;;;;;;;;;;;5050130;28;19913;-77
2022/11/11 16:52:15;;;;;;;;;;;;;;;;;;5051426;28;20281;-78
2022/11/11 16:54:41;;;;;;;;;;;;;;;;;;5051213;28;19959;-77
2022/11/11 16:57:07;;;;;;;;;;;;;;;;;;5052385;28;20018;-79
2022/11/11 16:59:33;;;;;;;;;;;;;;;;;;5049646;28;19920;-77
2022/11/11 17:01:59;;;;;;;;;;;;;;;;;;5051381;28;19913;-77
2022/11/11 17:04:25;;;;;;;;;;;;;;;;;;5049450;28;19917;-77
2022/11/11 17:06:51;;;;;;;;;;;;;;;;;;5050195;28;20008;-77
2022/11/11 17:09:17;;;;;;;;;;;;;;;;;;5052592;28;19915;-77
2022/11/11 17:11:42;;;;;;;;;;;;;;;;;;5050908;28;20300;-76
2022/11/11 17:14:08;;;;;;;;;;;;;;;;;;5054159;28;19913;-77
2022/11/11 17:16:34;;;;;;;;;;;;;;;;;;5055229;28;19937;-78
2022/11/11 17:19:00;;;;;;;;;;;;;;;;;;5054864;28;20313;-77
2022/11/11 17:21:26;;;;;;;;;;;;;;;;;;5055173;28;20494;-77
2022/11/11 17:23:52;;;;;;;;;;;;;;;;;;5054558;28;19917;-77
2022/11/11 17:26:18;;;;;;;;;;;;;;;;;;5053020;28;20066;-77
2022/11/11 17:28:44;;;;;;;;;;;;;;;;;;5057277;28;19919;-78
2022/11/11 17:31:10;;;;;;;;;;;;;;;;;;5054492;28;19932;-77
2022/11/11 17:33:36;;;;;;;;;;;;;;;;;;5053385;28;19913;-77
2022/11/11 17:36:01;;;;;;;;;;;;;;;;;;5055336;28;19963;-76
2022/11/11 17:38:27;;;;;;;;;;;;;;;;;;5052785;28;19921;-78
2022/11/11 17:40:53;;;;;;;;;;;;;;;;;;5055725;28;19916;-77
2022/11/11 17:43:19;;;;;;;;;;;;;;;;;;5052910;28;19967;-77
2022/11/11 17:45:45;;;;;;;;;;;;;;;;;;5055536;28;19959;-77
2022/11/11 17:48:11;;;;;;;;;;;;;;;;;;5053481;28;19991;-78
2022/11/11 17:50:37;;;;;;;;;;;;;;;;;;5055329;28;19908;-79
2022/11/11 17:53:03;;;;;;;;;;;;;;;;;;5055867;28;19981;-78
2022/11/11 17:55:28;;;;;;;;;;;;;;;;;;5055909;28;19939;-79
2022/11/11 17:57:55;;;;;;;;;;;;;;;;;;5057729;28;19927;-79
2022/11/11 18:00:21;;;;;;;;;;;;;;;;;;5052190;28;19916;-79
2022/11/11 18:02:47;;;;;;;;;;;;;;;;;;5054990;28;20439;-78